Time;durP1;ratioP1;P1;durP2;ratioP2;P2;SDS_P1;SDS_P2;PMS_P1;PMS_P2;Temp;Humidity;BMP_temperature;BMP_pressure;BME280_temperature;BME280_humidity;BME280_pressure;Samples;Min_cycle;Max_cycle;Signal;HPM_P1;HPM_P2
2021/05/31 00:00:56;;;;;;;4.60;3.03;;;;;;;14.33;56.57;101665.94;5061329;28;20036;-49
2021/05/31 00:03:22;;;;;;;5.10;3.25;;;;;;;14.19;57.25;101661.66;5063675;28;20027;-49
2021/05/31 00:05:48;;;;;;;4.50;3.20;;;;;;;14.16;56.58;101668.66;5064589;28;20036;-49
2021/05/31 00:08:13;;;;;;;5.20;3.10;;;;;;;14.04;57.65;101659.03;5060204;28;20151;-52
2021/05/31 00:10:39;;;;;;;4.82;3.25;;;;;;;14.04;58.46;101656.41;5056989;28;20036;-48
2021/05/31 00:13:05;;;;;;;5.43;3.08;;;;;;;13.98;58.80;101654.69;5066944;28;20055;-49
2021/05/31 00:15:31;;;;;;;5.90;3.45;;;;;;;13.74;58.76;101655.63;5085713;28;20055;-48
2021/05/31 00:17:57;;;;;;;5.15;3.08;;;;;;;13.78;58.78;101657.38;5034854;28;20493;-50
2021/05/31 00:20:23;;;;;;;4.75;3.35;;;;;;;13.58;60.56;101650.41;5078916;28;20069;-48
2021/05/31 00:22:49;;;;;;;5.20;3.42;;;;;;;13.52;59.77;101645.16;5084112;28;20030;-48
2021/05/31 00:25:15;;;;;;;5.03;3.22;;;;;;;13.47;60.32;101648.66;5080733;28;20495;-48
2021/05/31 00:27:42;;;;;;;4.63;3.20;;;;;;;13.39;60.05;101652.19;5089537;28;20027;-48
2021/05/31 00:30:09;;;;;;;5.28;3.20;;;;;;;13.44;60.52;101652.16;5069689;28;20445;-48
2021/05/31 00:32:36;;;;;;;5.57;3.20;;;;;;;13.33;60.12;101646.88;5086768;28;20040;-48
2021/05/31 00:35:08;;;;;;;4.68;3.35;;;;;;;13.29;59.92;101656.53;5067563;28;20044;-49
2021/05/31 00:37:34;;;;;;;4.38;3.03;;;;;;;13.32;60.70;101653.03;5086885;28;20048;-51
2021/05/31 00:40:07;;;;;;;5.13;3.20;;;;;;;13.25;61.19;101652.16;5092237;28;20055;-47
2021/05/31 00:42:33;;;;;;;6.63;3.13;;;;;;;13.13;61.36;101652.16;5084546;28;20027;-48
2021/05/31 00:44:59;;;;;;;6.68;3.50;;;;;;;13.25;61.42;101644.28;5085082;28;20789;-51
2021/05/31 00:47:24;;;;;;;5.22;3.20;;;;;;;13.35;60.12;101650.44;5057295;28;20094;-49
2021/05/31 00:49:50;;;;;;;5.10;2.97;;;;;;;13.17;60.79;101646.03;5060748;28;20489;-48
2021/05/31 00:52:16;;;;;;;4.82;3.00;;;;;;;13.07;61.22;101642.53;5069180;28;20036;-52
2021/05/31 00:54:41;;;;;;;5.22;2.97;;;;;;;13.20;61.48;101638.13;5086865;28;20032;-49
2021/05/31 00:57:07;;;;;;;6.25;3.40;;;;;;;13.13;62.26;101639.00;5069567;28;20118;-49
2021/05/31 00:59:33;;;;;;;4.85;2.95;;;;;;;13.20;61.19;101645.16;5082418;28;20520;-47
2021/05/31 01:01:59;;;;;;;5.25;3.15;;;;;;;13.19;61.43;101636.38;5085986;28;20175;-50
2021/05/31 01:04:24;;;;;;;5.40;3.13;;;;;;;12.97;61.60;101635.50;5082757;28;20079;-48
2021/05/31 01:07:07;;;;;;;5.70;3.65;;;;;;;13.05;62.71;101633.75;5084702;28;20028;-50
2021/05/31 01:10:09;;;;;;;5.75;3.55;;;;;;;12.95;62.81;101634.63;5054485;28;20499;-53
2021/05/31 01:12:46;;;;;;;5.28;3.53;;;;;;;12.87;62.23;101637.22;5065485;28;21423;-49
2021/05/31 01:15:23;;;;;;;5.88;3.25;;;;;;;12.70;62.39;101637.22;5087046;28;20489;-48
2021/05/31 01:18:04;;;;;;;4.63;2.95;;;;;;;12.58;64.21;101638.06;5083992;28;20483;-48
2021/05/31 01:20:55;;;;;;;5.40;3.55;;;;;;;12.50;64.84;101634.56;5070178;28;20630;-49
2021/05/31 01:23:23;;;;;;;6.40;3.63;;;;;;;12.43;65.10;101635.38;5066146;28;20373;-47
2021/05/31 01:26:12;;;;;;;6.20;3.35;;;;;;;12.62;63.36;101641.56;5070653;28;20041;-47
2021/05/31 01:28:54;;;;;;;;;;;;;;;12.58;63.90;101632.81;5084861;28;20043;-51
2021/05/31 01:31:29;;;;;;;5.70;3.20;;;;;;;12.64;62.96;101631.06;5084452;28;20303;-48
2021/05/31 01:33:57;;;;;;;5.45;3.60;;;;;;;12.53;63.41;101634.56;5086845;28;20073;-49
2021/05/31 01:36:24;;;;;;;4.82;3.60;;;;;;;12.55;63.13;101632.81;5086805;28;20052;-48
2021/05/31 01:38:52;;;;;;;6.13;3.33;;;;;;;12.57;62.96;101636.31;5084458;28;20036;-48
2021/05/31 01:41:19;;;;;;;5.60;3.17;;;;;;;12.44;64.03;101639.78;5084376;28;20046;-50
2021/05/31 01:43:46;;;;;;;6.15;3.67;;;;;;;12.27;64.37;101635.34;5084963;28;20418;-48
2021/05/31 01:46:13;;;;;;;6.45;3.60;;;;;;;12.27;65.13;101634.47;5082499;28;20048;-47
2021/05/31 01:48:39;;;;;;;5.78;3.72;;;;;;;12.27;64.73;101626.63;5042749;28;20024;-47
2021/05/31 01:51:07;;;;;;;5.57;3.70;;;;;;;12.15;64.80;101634.44;5086026;28;20044;-49
2021/05/31 01:53:35;;;;;;;5.67;3.67;;;;;;;12.19;64.90;101626.56;5083510;28;20036;-51
2021/05/31 01:56:02;;;;;;;4.97;3.45;;;;;;;12.33;64.14;101631.00;5082303;28;20286;-50
2021/05/31 01:58:28;;;;;;;6.68;3.53;;;;;;;12.27;64.80;101624.84;5082929;28;20038;-47
2021/05/31 02:00:54;;;;;;;7.68;3.83;;;;;;;12.47;63.46;101624.03;5084924;28;20043;-47
2021/05/31 02:03:20;;;;;;;15.25;6.18;;;;;;;12.14;65.51;101628.28;5085234;28;20074;-51
2021/05/31 02:05:46;;;;;;;16.45;6.85;;;;;;;12.07;65.27;101627.41;5080994;28;20063;-49
2021/05/31 02:08:11;;;;;;;19.30;7.65;;;;;;;11.90;66.33;101626.41;5087244;28;20079;-49
2021/05/31 02:10:37;;;;;;;23.33;7.97;;;;;;;11.83;66.30;101628.13;5084330;28;20048;-51
2021/05/31 02:13:04;;;;;;;8.00;4.32;;;;;;;11.91;65.52;101623.78;5083845;28;20020;-52
2021/05/31 02:15:40;;;;;;;6.47;3.95;;;;;;;12.14;65.31;101620.44;5082282;28;20102;-48
2021/05/31 02:18:15;;;;;;;6.35;3.97;;;;;;;12.21;65.71;101621.34;5055440;28;20044;-48
2021/05/31 02:20:43;;;;;;;8.43;4.22;;;;;;;11.79;67.66;101628.97;5083980;28;20396;-52
2021/05/31 02:23:11;;;;;;;6.97;4.15;;;;;;;12.04;65.25;101621.28;5082423;28;20044;-47
2021/05/31 02:25:38;;;;;;;5.25;3.75;;;;;;;12.12;65.37;101616.94;5083833;28;20108;-48
2021/05/31 02:28:05;;;;;;;4.80;3.60;;;;;;;11.75;66.46;101624.56;5082899;28;20031;-50
2021/05/31 02:30:32;;;;;;;6.45;3.85;;;;;;;11.43;68.04;101619.16;5066259;28;20448;-47
2021/05/31 02:33:00;;;;;;;6.70;3.70;;;;;;;11.40;68.86;101622.63;5083529;28;20112;-47
2021/05/31 02:35:28;;;;;;;7.47;4.20;;;;;;;11.37;68.57;101622.59;5086341;28;20056;-46
2021/05/31 02:37:55;;;;;;;5.40;3.65;;;;;;;11.49;68.24;101620.06;5052705;28;20655;-47
2021/05/31 02:40:21;;;;;;;11.90;5.60;;;;;;;11.39;67.96;101624.38;5083803;28;20065;-49
2021/05/31 02:42:50;;;;;;;17.77;7.18;;;;;;;11.54;67.66;101634.06;5085334;28;20034;-49
2021/05/31 02:45:17;;;;;;;17.05;6.80;;;;;;;11.58;67.08;101621.88;5081078;28;20076;-47
2021/05/31 02:47:44;;;;;;;16.95;7.68;;;;;;;11.25;67.76;101626.84;5064596;28;20032;-49
2021/05/31 02:50:10;;;;;;;15.38;7.05;;;;;;;11.04;70.39;101630.19;5057157;28;20039;-49
2021/05/31 02:52:40;;;;;;;16.52;6.60;;;;;;;11.17;68.53;101625.94;5078669;28;20059;-47
2021/05/31 02:55:12;;;;;;;9.93;4.97;;;;;;;11.34;68.56;101625.16;5083119;28;20466;-52
2021/05/31 02:57:39;;;;;;;10.38;5.00;;;;;;;11.20;68.82;101623.34;5088939;28;21136;-49
2021/05/31 03:00:07;;;;;;;7.88;4.65;;;;;;;11.12;69.49;101630.25;5065183;28;20059;-49
2021/05/31 03:02:33;;;;;;;6.33;4.27;;;;;;;11.20;68.21;101620.72;5079222;28;20028;-50
2021/05/31 03:04:59;;;;;;;6.43;4.20;;;;;;;10.92;70.27;101624.84;5084335;28;20331;-48
2021/05/31 03:07:25;;;;;;;6.75;4.00;;;;;;;10.86;70.07;101620.41;5063883;28;20091;-47
2021/05/31 03:09:51;;;;;;;6.97;4.40;;;;;;;10.82;70.37;101610.78;5077566;28;20305;-49
2021/05/31 03:12:16;;;;;;;6.65;4.18;;;;;;;10.71;70.12;101618.53;5083215;28;20030;-46
2021/05/31 03:14:42;;;;;;;6.03;4.00;;;;;;;10.47;71.88;101619.16;5027227;28;20127;-48
2021/05/31 03:17:08;;;;;;;6.47;4.20;;;;;;;10.55;70.47;101620.13;5079575;28;20047;-50
2021/05/31 03:19:33;;;;;;;6.82;3.92;;;;;;;10.56;70.66;101621.00;5078911;28;20488;-46
2021/05/31 03:21:59;;;;;;;8.18;4.05;;;;;;;10.50;72.17;101619.19;5076701;28;20020;-50
2021/05/31 03:24:25;;;;;;;6.82;4.20;;;;;;;10.45;70.58;101620.88;5083798;28;20056;-47
2021/05/31 03:26:50;;;;;;;7.60;4.55;;;;;;;10.30;72.02;101620.66;5056910;28;20551;-47
2021/05/31 03:29:16;;;;;;;7.97;4.40;;;;;;;10.44;71.62;101621.75;5069270;28;20048;-50
2021/05/31 03:31:42;;;;;;;13.57;5.78;;;;;;;10.50;72.35;101629.66;5051367;28;20547;-47
2021/05/31 03:34:07;;;;;;;12.15;6.15;;;;;;;10.41;71.19;101624.31;5063004;28;20514;-48
2021/05/31 03:36:33;;;;;;;16.45;7.80;;;;;;;10.09;73.89;101631.75;5078820;28;20551;-48
2021/05/31 03:38:58;;;;;;;22.17;8.20;;;;;;;10.54;72.39;101630.56;5059524;28;20114;-51
2021/05/31 03:41:24;;;;;;;15.57;6.50;;;;;;;10.70;69.98;101636.81;5079858;28;20131;-48
2021/05/31 03:43:50;;;;;;;12.40;5.80;;;;;;;10.69;69.98;101635.97;5064393;28;20083;-50
2021/05/31 03:46:16;;;;;;;12.98;6.05;;;;;;;10.56;71.59;101637.59;5052858;28;20046;-48
2021/05/31 03:48:42;;;;;;;14.35;5.70;;;;;;;10.69;72.10;101635.09;5059621;28;20036;-50
2021/05/31 03:51:08;;;;;;;8.98;5.22;;;;;;;10.65;71.92;101628.06;5057887;28;20113;-48
2021/05/31 03:53:35;;;;;;;10.07;4.93;;;;;;;10.73;71.72;101631.66;5039399;28;20462;-50
2021/05/31 03:56:01;;;;;;;10.90;5.70;;;;;;;10.68;71.92;101638.56;5074359;28;20911;-48
2021/05/31 03:58:27;;;;;;;9.13;5.13;;;;;;;10.50;71.02;101645.34;5078348;28;20127;-50
2021/05/31 04:00:53;;;;;;;8.77;5.15;;;;;;;10.45;72.84;101641.78;5067734;28;20064;-51
2021/05/31 04:03:19;;;;;;;11.52;5.50;;;;;;;10.26;72.72;101642.41;5080143;28;20518;-50
2021/05/31 04:05:56;;;;;;;10.93;5.22;;;;;;;10.08;74.73;101646.56;5079799;28;20287;-50
2021/05/31 04:11:40;;;;;;;9.43;5.25;;;;;;;10.10;73.16;101649.19;5016609;28;20520;-51
2021/05/31 04:14:18;;;;;;;7.65;4.38;;;;;;;10.40;71.27;101648.72;5057763;28;20064;-49
2021/05/31 04:16:46;;;;;;;7.32;4.18;;;;;;;10.10;73.55;101650.06;5080198;28;20779;-50
2021/05/31 04:19:14;;;;;;;7.00;4.63;;;;;;;10.04;74.97;101650.84;5063877;28;20055;-48
2021/05/31 04:21:43;;;;;;;8.68;5.10;;;;;;;10.04;73.13;101643.00;5083027;28;20039;-49
2021/05/31 04:24:10;;;;;;;6.70;4.07;;;;;;;10.18;73.63;101652.78;5079355;28;20035;-48
2021/05/31 04:26:36;;;;;;;7.43;4.50;;;;;;;10.38;73.41;101647.81;5062437;28;20129;-47
2021/05/31 04:29:05;;;;;;;8.35;4.90;;;;;;;10.04;74.31;101655.22;5083788;28;20046;-48
2021/05/31 04:31:32;;;;;;;8.82;4.07;;;;;;;10.07;74.50;101647.41;5079387;28;20040;-48
2021/05/31 04:33:58;;;;;;;8.73;4.18;;;;;;;10.26;73.05;101640.69;5081455;28;20039;-48
2021/05/31 04:36:24;;;;;;;7.03;3.85;;;;;;;10.10;74.56;101643.97;5066547;28;20384;-48
2021/05/31 04:38:50;;;;;;;8.35;4.15;;;;;;;10.10;74.32;101643.97;5078132;28;20096;-48
2021/05/31 04:41:15;;;;;;;6.00;4.15;;;;;;;10.17;73.56;101646.66;5061874;28;20101;-50
2021/05/31 04:43:41;;;;;;;7.13;4.07;;;;;;;10.26;72.59;101651.13;5078601;28;20127;-48
2021/05/31 04:46:07;;;;;;;6.30;4.22;;;;;;;10.11;74.90;101649.19;5076929;28;20069;-48
2021/05/31 04:48:33;;;;;;;6.75;3.78;;;;;;;10.41;73.10;101642.59;5085749;28;20036;-48
2021/05/31 04:51:01;;;;;;;6.50;4.13;;;;;;;10.67;71.33;101644.66;5062748;28;20036;-48
2021/05/31 04:53:29;;;;;;;8.77;4.57;;;;;;;10.58;73.30;101645.44;5080650;28;20722;-48
2021/05/31 04:55:57;;;;;;;7.13;4.10;;;;;;;10.73;72.89;101645.59;5083015;28;20212;-48
2021/05/31 04:58:24;;;;;;;8.13;4.50;;;;;;;10.54;72.94;101649.75;5078119;28;20040;-49
2021/05/31 05:00:51;;;;;;;7.82;4.00;;;;;;;10.61;70.70;101641.97;5078417;28;20032;-48
2021/05/31 05:03:18;;;;;;;7.00;4.20;;;;;;;10.54;72.47;101641.91;5057210;28;20381;-49
2021/05/31 05:05:47;;;;;;;6.57;4.28;;;;;;;10.54;72.76;101636.66;5075349;28;20039;-48
2021/05/31 05:08:13;;;;;;;8.77;4.55;;;;;;;10.73;72.46;101642.97;5083155;28;20044;-49
2021/05/31 05:10:40;;;;;;;8.38;4.60;;;;;;;10.66;73.19;101635.03;5075468;28;20044;-50
2021/05/31 05:13:05;;;;;;;5.85;4.28;;;;;;;10.69;73.02;101638.56;5077813;28;20587;-49
2021/05/31 05:15:31;;;;;;;7.03;4.55;;;;;;;10.72;71.89;101638.59;5083873;28;20035;-48
2021/05/31 05:17:57;;;;;;;6.18;4.22;;;;;;;10.82;72.79;101636.94;5079244;28;20518;-48
2021/05/31 05:20:26;;;;;;;6.28;4.05;;;;;;;10.84;71.88;101640.47;5060721;28;20131;-48
2021/05/31 05:22:54;;;;;;;7.38;4.13;;;;;;;10.91;73.09;101638.81;5059042;28;20036;-50
2021/05/31 05:25:20;;;;;;;6.40;4.57;;;;;;;10.99;69.91;101628.38;5075530;28;20040;-47
2021/05/31 05:27:49;;;;;;;7.72;4.47;;;;;;;11.05;72.71;101633.69;5079724;28;20043;-48
2021/05/31 05:30:17;;;;;;;;;;;;;;;11.04;73.12;101632.78;5058844;28;20035;-48
2021/05/31 05:32:48;;;;;;;7.55;4.10;;;;;;;11.08;72.75;101637.19;5077322;28;19924;-48
2021/05/31 05:35:27;;;;;;;7.75;4.60;;;;;;;11.16;72.84;101637.28;5079502;28;20031;-48
2021/05/31 05:40:52;;;;;;;8.20;4.97;;;;;;;11.27;71.43;101637.38;5076324;28;20208;-48
2021/05/31 05:45:53;;;;;;;8.35;4.38;;;;;;;11.47;70.71;101632.25;5077750;28;20036;-48
2021/05/31 05:48:19;;;;;;;6.38;4.25;;;;;;;11.57;68.20;101627.97;5077194;28;20453;-48
2021/05/31 05:50:44;;;;;;;8.00;4.65;;;;;;;11.68;68.28;101636.75;5082767;28;20051;-48
2021/05/31 05:53:11;;;;;;;7.47;4.90;;;;;;;11.74;69.92;101626.34;5076137;28;20109;-47
2021/05/31 05:55:36;;;;;;;6.60;4.43;;;;;;;11.79;69.61;101642.06;5081377;28;20087;-48
2021/05/31 05:58:02;;;;;;;9.10;4.95;;;;;;;11.92;69.18;101638.66;5081067;28;20464;-49
2021/05/31 06:00:30;;;;;;;6.65;4.28;;;;;;;12.09;65.73;101638.75;5061473;28;20043;-49
2021/05/31 06:02:57;;;;;;;6.47;4.30;;;;;;;12.16;68.52;101636.19;5083443;28;20687;-47
2021/05/31 06:05:23;;;;;;;8.48;5.13;;;;;;;12.20;68.60;101630.94;5065210;28;21995;-50
2021/05/31 06:07:49;;;;;;;7.03;4.30;;;;;;;12.25;64.69;101638.81;5072205;28;20055;-49
2021/05/31 06:10:16;;;;;;;8.60;4.88;;;;;;;12.99;64.13;101643.38;5079917;28;20182;-48
2021/05/31 06:12:43;;;;;;;7.28;4.47;;;;;;;13.13;62.26;101641.66;5077562;28;20057;-49
2021/05/31 06:15:10;;;;;;;10.88;5.07;;;;;;;12.86;64.02;101646.00;5073615;28;20028;-49
2021/05/31 06:17:36;;;;;;;7.60;4.68;;;;;;;12.78;63.94;101645.13;5077353;28;20049;-50
2021/05/31 06:20:04;;;;;;;7.38;4.55;;;;;;;13.55;61.17;101647.75;5080143;28;20035;-48
2021/05/31 06:22:39;;;;;;;9.07;4.72;;;;;;;13.23;62.06;101646.00;5075908;28;20432;-49
2021/05/31 06:25:08;;;;;;;9.85;5.05;;;;;;;13.52;61.12;101633.78;5054796;28;20109;-48
2021/05/31 06:27:34;;;;;;;7.65;5.40;;;;;;;13.84;60.38;101635.47;5055519;28;20039;-47
2021/05/31 06:29:59;;;;;;;8.98;5.60;;;;;;;13.45;61.70;101632.91;5077219;28;20521;-50
2021/05/31 06:32:25;;;;;;;10.45;5.80;;;;;;;13.31;64.33;101637.28;5061378;28;20143;-48
2021/05/31 06:34:51;;;;;;;7.45;4.53;;;;;;;13.35;63.39;101647.81;5077173;28;20092;-51
2021/05/31 06:37:16;;;;;;;8.57;5.68;;;;;;;13.25;63.19;101636.41;5062250;28;20591;-51
2021/05/31 06:39:42;;;;;;;8.73;5.93;;;;;;;13.92;61.59;101624.03;5060314;28;20492;-49
2021/05/31 06:42:12;;;;;;;10.75;5.95;;;;;;;13.61;62.60;101628.53;5078671;28;20043;-48
2021/05/31 06:44:38;;;;;;;10.57;5.85;;;;;;;13.56;64.32;101627.66;5077074;28;20075;-51
2021/05/31 06:47:04;;;;;;;9.90;5.63;;;;;;;13.55;63.18;101625.88;5078620;28;20032;-49
2021/05/31 06:49:29;;;;;;;9.45;6.28;;;;;;;13.56;65.00;101627.66;5043262;28;20499;-51
2021/05/31 06:51:55;;;;;;;9.18;6.28;;;;;;;13.55;63.26;101618.88;5084295;28;20068;-52
2021/05/31 06:54:21;;;;;;;10.20;6.13;;;;;;;13.78;62.69;101616.19;5076017;28;20055;-49
2021/05/31 06:56:46;;;;;;;9.60;5.70;;;;;;;13.85;62.92;101621.44;5084383;28;20040;-50
2021/05/31 06:59:13;;;;;;;8.75;5.68;;;;;;;14.19;61.52;101616.03;5061394;28;20032;-50
2021/05/31 07:01:39;;;;;;;9.55;5.28;;;;;;;14.18;61.99;101614.28;5079399;28;20043;-51
2021/05/31 07:04:05;;;;;;;8.38;5.53;;;;;;;14.53;60.15;101621.16;5061775;28;20104;-49
2021/05/31 07:06:31;;;;;;;8.15;5.00;;;;;;;14.29;59.93;101616.00;5076446;28;20287;-50
2021/05/31 07:08:57;;;;;;;9.38;5.20;;;;;;;14.41;60.27;101616.81;5074817;28;20046;-50
2021/05/31 07:11:24;;;;;;;7.15;4.57;;;;;;;14.62;61.27;101608.84;5056163;28;20043;-52
2021/05/31 07:13:51;;;;;;;7.97;5.20;;;;;;;14.42;59.80;101610.69;5078770;28;20035;-50
2021/05/31 07:16:17;;;;;;;8.23;5.18;;;;;;;14.39;59.75;101610.69;5060874;28;20056;-49
2021/05/31 07:18:42;;;;;;;8.05;4.85;;;;;;;14.41;60.32;101607.19;5082207;28;20046;-50
2021/05/31 07:21:08;;;;;;;7.70;4.95;;;;;;;14.45;61.58;101603.66;5076445;28;20044;-50
2021/05/31 07:23:36;;;;;;;8.23;5.28;;;;;;;14.72;60.94;101600.88;5081942;28;20067;-50
2021/05/31 07:26:03;;;;;;;9.73;5.72;;;;;;;14.68;59.06;101607.06;5063662;28;20035;-49
2021/05/31 07:28:28;;;;;;;7.45;5.50;;;;;;;14.68;59.20;101602.66;5076507;28;21042;-49
2021/05/31 07:30:54;;;;;;;8.95;5.40;;;;;;;14.73;59.34;101603.50;5076573;28;20411;-49
2021/05/31 07:33:20;;;;;;;8.35;5.68;;;;;;;15.37;57.44;101600.31;5057954;28;20466;-50
2021/05/31 07:35:46;;;;;;;8.40;4.50;;;;;;;15.61;56.39;101602.72;5061622;28;20574;-50
2021/05/31 07:38:11;;;;;;;6.28;4.43;;;;;;;15.91;55.28;101598.03;5062743;28;20446;-49
2021/05/31 07:40:37;;;;;;;6.57;4.63;;;;;;;16.21;54.63;101597.66;5076554;28;20082;-53
2021/05/31 07:43:03;;;;;;;8.48;4.97;;;;;;;16.05;54.38;101599.59;5078165;28;20040;-49
2021/05/31 07:45:29;;;;;;;7.15;4.30;;;;;;;16.39;52.74;101600.03;5081732;28;20043;-50
2021/05/31 07:47:54;;;;;;;7.60;4.30;;;;;;;15.87;54.42;101601.59;5074890;28;20040;-49
2021/05/31 07:50:20;;;;;;;7.47;4.80;;;;;;;16.13;53.86;101598.63;5078439;28;20630;-50
2021/05/31 07:52:47;;;;;;;7.63;4.43;;;;;;;16.22;53.52;101597.63;5083104;28;20712;-51
2021/05/31 07:55:16;;;;;;;8.35;4.85;;;;;;;16.32;52.96;101603.66;5075936;28;20477;-49
2021/05/31 07:57:44;;;;;;;7.38;4.15;;;;;;;15.89;54.24;101596.28;5076200;28;20045;-52
2021/05/31 08:00:12;;;;;;;6.30;4.30;;;;;;;15.68;54.93;101598.25;5074823;28;20040;-51
2021/05/31 08:02:44;;;;;;;8.55;4.53;;;;;;;15.72;54.36;101589.41;5073251;28;20062;-50
2021/05/31 08:05:18;;;;;;;9.15;4.78;;;;;;;15.54;55.51;101582.59;5062533;28;20519;-50
2021/05/31 08:07:44;;;;;;;8.07;4.28;;;;;;;15.66;55.97;101590.38;5080022;28;20024;-50
2021/05/31 08:10:10;;;;;;;7.05;4.57;;;;;;;16.30;53.70;101582.56;5076534;28;20044;-51
2021/05/31 08:12:36;;;;;;;6.88;4.57;;;;;;;15.98;54.86;101588.28;5061840;28;20112;-50
2021/05/31 08:15:05;;;;;;;8.25;4.68;;;;;;;16.00;55.00;101578.56;5078253;28;20524;-50
2021/05/31 08:17:31;;;;;;;;;;;;;;;16.27;54.18;101581.72;5079921;28;20721;-52
2021/05/31 08:19:56;;;;;;;5.75;4.07;;;;;;;16.02;54.14;101579.44;5084502;28;19936;-50
2021/05/31 08:22:22;;;;;;;8.73;4.35;;;;;;;16.16;52.25;101581.91;5074057;28;20084;-51
2021/05/31 08:24:48;;;;;;;8.98;4.30;;;;;;;16.67;52.62;101574.09;5056238;28;20101;-50
2021/05/31 08:27:14;;;;;;;5.85;4.32;;;;;;;16.41;53.66;101574.50;5063497;28;20112;-50
2021/05/31 08:29:40;;;;;;;8.82;4.65;;;;;;;16.60;52.01;101576.84;5059235;28;20040;-49
2021/05/31 08:32:06;;;;;;;7.75;4.38;;;;;;;16.76;53.04;101577.50;5076588;28;20043;-49
2021/05/31 08:34:31;;;;;;;9.68;5.22;;;;;;;16.96;52.58;101586.00;5083176;28;20603;-51
2021/05/31 08:36:57;;;;;;;7.03;4.80;;;;;;;16.69;53.02;101572.31;5075376;28;20502;-49
2021/05/31 08:39:23;;;;;;;8.38;4.97;;;;;;;16.69;53.33;101566.16;5079640;28;20051;-51
2021/05/31 08:41:51;;;;;;;6.88;4.65;;;;;;;16.63;53.23;101567.13;5078016;28;20116;-49
2021/05/31 08:44:30;;;;;;;7.50;4.57;;;;;;;17.19;50.57;101560.94;5060562;28;20178;-49
2021/05/31 08:46:56;;;;;;;9.43;5.07;;;;;;;17.25;50.03;101562.59;5086600;28;20028;-50
2021/05/31 08:49:24;;;;;;;7.60;4.72;;;;;;;17.30;49.39;101561.63;5081852;28;20662;-50
2021/05/31 08:51:50;;;;;;;7.10;4.47;;;;;;;17.33;49.94;101564.22;5058295;28;20047;-54
2021/05/31 08:54:15;;;;;;;6.68;4.68;;;;;;;17.56;50.83;101552.34;5085073;28;20420;-50
2021/05/31 08:56:42;;;;;;;7.57;5.32;;;;;;;17.34;51.21;101557.16;5082974;28;20416;-52
2021/05/31 08:59:08;;;;;;;8.52;4.60;;;;;;;17.46;48.96;101549.00;5081346;28;20517;-50
2021/05/31 09:01:34;;;;;;;8.57;4.95;;;;;;;17.52;49.88;101548.88;5082763;28;20020;-52
2021/05/31 09:03:59;;;;;;;7.80;4.45;;;;;;;17.80;49.84;101539.50;5061247;28;20251;-49
2021/05/31 09:06:28;;;;;;;19.00;6.82;;;;;;;17.77;48.69;101531.66;5064536;28;20036;-51
2021/05/31 09:08:55;;;;;;;7.38;4.07;;;;;;;17.68;49.82;101537.97;5080573;28;20353;-54
2021/05/31 09:11:22;;;;;;;9.23;4.20;;;;;;;17.67;51.37;101539.75;5081144;28;20036;-49
2021/05/31 09:13:48;;;;;;;6.65;4.82;;;;;;;17.92;48.75;101538.44;5082267;28;20035;-49
2021/05/31 09:16:17;;;;;;;8.30;4.60;;;;;;;17.98;50.37;101547.06;5081750;28;20569;-51
2021/05/31 09:18:46;;;;;;;6.32;4.30;;;;;;;18.34;49.38;101544.50;5063196;28;20047;-52
2021/05/31 09:21:23;;;;;;;6.45;4.28;;;;;;;18.30;50.35;101534.03;5082177;28;20043;-50
2021/05/31 09:23:54;;;;;;;6.78;4.20;;;;;;;18.18;49.43;101527.25;5079730;28;20058;-50
2021/05/31 09:26:20;;;;;;;6.57;4.78;;;;;;;18.18;47.16;101528.13;5078654;28;20032;-48
2021/05/31 09:29:04;;;;;;;7.72;5.20;;;;;;;18.07;48.65;101535.44;5083632;28;20046;-49
2021/05/31 09:31:30;;;;;;;10.00;4.53;;;;;;;18.66;46.41;101526.13;5070803;28;20466;-49
2021/05/31 09:33:57;;;;;;;7.43;4.75;;;;;;;18.83;46.57;101528.34;5078835;28;20047;-53
2021/05/31 09:36:24;;;;;;;6.53;4.95;;;;;;;19.21;44.67;101515.91;5079879;28;20063;-52
2021/05/31 09:38:50;;;;;;;7.75;4.75;;;;;;;19.00;46.78;101514.72;5076892;28;20062;-51
2021/05/31 09:41:21;;;;;;;5.88;4.25;;;;;;;18.69;47.36;101521.63;5072807;28;20036;-51
2021/05/31 09:43:52;;;;;;;7.35;4.95;;;;;;;18.99;46.87;101515.59;5080526;28;20043;-49
2021/05/31 09:46:17;;;;;;;6.60;4.63;;;;;;;18.90;45.29;101519.38;5079623;28;20040;-50
2021/05/31 09:48:43;;;;;;;7.40;4.45;;;;;;;18.81;46.23;101516.91;5080583;28;20044;-49
2021/05/31 09:51:13;;;;;;;7.82;4.60;;;;;;;18.99;45.91;101505.88;5063054;28;20136;-49
2021/05/31 09:53:40;;;;;;;7.78;4.50;;;;;;;19.63;44.68;101499.66;5079929;28;20055;-49
2021/05/31 09:56:15;;;;;;;7.97;4.70;;;;;;;19.63;44.39;101501.47;5078518;28;20044;-49
2021/05/31 09:58:55;;;;;;;6.13;4.05;;;;;;;19.60;44.65;101491.81;5062452;28;20032;-50
2021/05/31 10:01:36;;;;;;;5.55;4.35;;;;;;;19.35;45.25;101489.00;5076877;28;20040;-51
2021/05/31 10:04:25;;;;;;;7.95;4.82;;;;;;;19.54;44.75;101492.00;5080219;28;20044;-50
2021/05/31 10:06:55;;;;;;;;;;;;;;;19.70;42.87;101493.28;5078465;28;20048;-51
2021/05/31 10:09:22;;;;;;;6.07;4.25;;;;;;;19.81;42.73;101492.97;5067295;28;19920;-51
2021/05/31 10:11:50;;;;;;;6.85;4.32;;;;;;;20.13;43.88;101490.25;5063296;28;20650;-50
2021/05/31 10:14:16;;;;;;;7.75;4.55;;;;;;;19.76;44.67;101488.69;5064117;28;20033;-49
2021/05/31 10:16:42;;;;;;;8.80;4.35;;;;;;;19.72;42.23;101479.97;5083081;28;20036;-50
2021/05/31 10:19:09;;;;;;;6.93;4.05;;;;;;;19.82;41.66;101478.81;5065024;28;20072;-53
2021/05/31 10:21:35;;;;;;;5.80;4.03;;;;;;;19.70;44.09;101476.50;5038635;28;20040;-52
2021/05/31 10:24:02;;;;;;;8.25;4.47;;;;;;;19.51;44.34;101465.59;5040512;28;20067;-50
2021/05/31 10:26:32;;;;;;;6.35;4.00;;;;;;;19.40;44.39;101471.19;5038533;28;20047;-52
2021/05/31 10:28:59;;;;;;;9.23;4.47;;;;;;;19.86;44.12;101468.97;5077137;28;20456;-50
2021/05/31 10:31:27;;;;;;;7.68;4.60;;;;;;;20.27;43.92;101477.44;5077914;28;20040;-50
2021/05/31 10:33:57;;;;;;;7.45;4.32;;;;;;;19.99;43.43;101466.81;5075463;28;20048;-52
2021/05/31 10:36:23;;;;;;;7.55;4.63;;;;;;;20.38;41.94;101464.66;5080551;28;20323;-49
2021/05/31 10:38:51;;;;;;;6.82;4.25;;;;;;;20.36;41.44;101465.63;5076841;28;20561;-51
2021/05/31 10:41:23;;;;;;;6.47;4.80;;;;;;;19.78;43.63;101470.97;5062057;28;20050;-50
2021/05/31 10:43:51;;;;;;;8.30;4.78;;;;;;;19.33;44.92;101454.59;5077280;28;20063;-52
2021/05/31 10:46:20;;;;;;;7.00;4.85;;;;;;;19.38;43.52;101457.97;5075909;28;20075;-53
2021/05/31 10:48:51;;;;;;;7.28;4.30;;;;;;;19.48;44.18;101447.09;5078447;28;20035;-50
2021/05/31 10:51:27;;;;;;;7.05;4.55;;;;;;;19.95;40.35;101452.78;5078870;28;20054;-52
2021/05/31 10:53:53;;;;;;;6.10;4.10;;;;;;;20.01;43.04;101452.56;5079232;28;20040;-51
2021/05/31 10:56:26;;;;;;;6.90;4.85;;;;;;;19.84;43.97;101446.91;5078345;28;20024;-49
2021/05/31 10:58:55;;;;;;;6.80;4.72;;;;;;;19.81;43.62;101449.69;5085975;28;20555;-51
2021/05/31 11:01:27;;;;;;;6.00;4.78;;;;;;;19.89;41.79;101437.91;5077667;28;20079;-53
2021/05/31 11:04:06;;;;;;;7.20;4.60;;;;;;;20.37;41.28;101446.13;5075666;28;20409;-51
2021/05/31 11:06:41;;;;;;;6.05;4.28;;;;;;;20.30;41.63;101447.22;5063222;28;20080;-50
2021/05/31 11:09:23;;;;;;;6.78;4.28;;;;;;;20.34;42.09;101446.22;5074812;28;20138;-52
2021/05/31 11:11:54;;;;;;;6.47;4.03;;;;;;;20.97;39.95;101436.09;5051237;28;20127;-52
2021/05/31 11:14:31;;;;;;;5.28;4.05;;;;;;;21.04;40.98;101428.78;5057851;28;20027;-49
2021/05/31 11:17:02;;;;;;;6.27;4.10;;;;;;;21.17;38.77;101427.41;5058395;28;20048;-50
2021/05/31 11:19:32;;;;;;;7.47;4.20;;;;;;;20.82;36.40;101423.38;5055477;28;20045;-49
2021/05/31 11:21:58;;;;;;;7.00;4.32;;;;;;;20.83;38.45;101427.78;5058680;28;20043;-53
2021/05/31 11:24:23;;;;;;;6.63;4.47;;;;;;;20.37;40.96;101430.19;5055112;28;20340;-50
2021/05/31 11:26:49;;;;;;;5.18;3.97;;;;;;;20.34;38.73;101420.53;5055066;28;20109;-53
2021/05/31 11:29:15;;;;;;;5.38;4.05;;;;;;;20.25;39.36;101426.16;5061077;28;20047;-49
2021/05/31 11:31:44;;;;;;;7.03;4.60;;;;;;;20.19;41.50;101413.09;5055683;28;20028;-49
2021/05/31 11:34:11;;;;;;;7.78;4.35;;;;;;;20.14;38.90;101418.53;5073639;28;20031;-51
2021/05/31 11:36:42;;;;;;;5.85;4.38;;;;;;;20.21;41.66;101414.78;5065124;28;20433;-50